Indian Hill, Texas
Current Conditions -  °F | °C
As of 12:55 AM on Monday 24 Nov 2014 (Local Time) from KJAS Reporting Station
Clear Clear  
Wind Chill: 59°   Ceiling: Unl
Heat Index: 59°   Visibility: 10mi
Dew Point: 51°   Wind: 8mph
Humidity: 75%   Direction: 280°W
Pressure: 29.77"   Gusts: NA
Location:  31.0751°N, 93.8073°W
Report Text: KJAS 240655Z AUTO 28007KT 10SM CLR 15/11 A2977 RMK AO2 T01480105
Loading
Personal Weather Stations






























Interactive Weather Map New forecast layout! Learn more

10-Day Weather Forecast

Advertisements
Track Severe Weather on mobile